DIRECCIÓN GENERAL DE AERONÁUTICA CIVIL
DIRECCIÓN METEOROLÓGICA DE CHILE
INFORMACIÓN METAR Y TAF

FIR PUERTO MONTT

Estación: SCQP
METAR SCQP 300300Z 01004KT 340V040 CAVOK 08/07 Q1015=

TAF SCQP 292245Z 3000/3100 02005KT 9999 SCT030 TN06/3009Z TX12/3019Z TEMPO 3001/3004 7000 -SHRA BKN015 BECMG 3014/3016 6000 -SHRA BKN015=

Estación: SCVD
METAR SCVD 300300Z AUTO 36005KT 9999 -RA FEW029 SCT036 OVC042 09/08 Q1014 RESHRA=

TAF SCVD 291040Z 2912/3012 04006KT 7000 -SHRA BKN020 TX12/2918Z TN09/3000Z BECMG 2915/2917 34010KT 5000 RA BKN015 OVC030=

Estación: SCJO
METAR SCJO 292300Z 02007KT 9999 BKN020 09/08 Q1013=

TAF SCJO 291042Z 2912/3012 01008KT 7000 -SHRA BKN020 TX12/2918Z TN09/3000Z BECMG 2919/2921 5000 RA BKN020 OVC040=

Estación: SCTE
METAR SCTE 300300Z 03011KT 8000 -SHRA BKN040 08/07 Q1013 NOSIG=

TAF SCTE 292253Z 3000/3100 02015KT 9999 BKN030 TN07/3010Z TX11/3018Z TEMPO 3002/3005 8000 -SHRA BKN020 BECMG 3010/3012 7000 -SHRA BKN020 TEMPO 3016/3020 5000 -RA OVC010=

Estación: SCPQ
METAR SCPQ 300300Z AUTO 36007KT 9999 -RA BKN007 OVC044 07/06 Q1010=

TAF SCPQ 291044Z 2912/3000 34012KT 5000 -RA BKN010 OVC020 TX11/2918Z TN07/3000Z BECMG 2914/2916 7000 -SHRA BKN017 BKN040 TEMPO 2920/3000 3000 -RA BKN006 OVC015=

Estación: SCON
METAR SCON 292000Z 06005KT 030V100 9999 -SHRA BKN015 11/08 Q1009=

TAF SCON NIL=

Estación: SCTN
METAR SCTN 300300Z AUTO 07006KT 030V090 9999 FEW027 BKN045 07/05 Q1011=

TAF SCTN 291047Z 2912/3000 01018KT 5000 -RA BKN010 OVC020 TX10/2918Z TN06/3000Z BECMG 2918/2920 34008KT 7000 -SHRA BKN015 BKN040=

Estación: SCFT
METAR SCFT 300300Z AUTO VRB02KT 6000 -RA ///021 03/02 Q1012=

TAF SCFT NIL=

Estación: SCAP
SPECI SCAP 300301Z AUTO 00000KT 5000 // VV002 02/02 Q1017=

TAF SCAP NIL=

Estación: SCMK
METAR SCMK 292200Z 01008KT 9999 SCT033 SCT200 08/06 Q1007=

TAF SCMK 291049Z 2912/3000 34018KT 5000 -RA BKN012 OVC025 TX10/2918Z TN08/3000Z TEMPO 2914/2918 35022G35KT 2000 RA BKN008 OVC015=

Estación: SCAS
METAR SCAS 292000Z 00000KT 9999 SCT010 BKN033 06/05 Q1008=

TAF SCAS NIL=

Estación: SCCY
METAR SCCY 300300Z AUTO 36004KT CAVOK 03/02 Q1007=

TAF SCCY 291050Z 2912/3000 04005KT 9999 SCT015 BKN030 TX08/2918Z TN01/3000Z TEMPO 2913/2917 VRB02KT 7000 -SHRA BKN020=

Estación: SCBA
METAR SCBA 300300Z AUTO 00000KT 9999 M00/M01 Q1007=

TAF SCBA 292259Z 3000/3100 VRB02KT 9999 SCT025 TNM01/3010Z TX06/3018Z BECMG 3013/3015 16005KT TEMPO 3019/3022 9000 -SHRA BKN015=

Estación: SCCC
METAR SCCC 292000Z 32003KT 9999 FEW030 SCT040 07/02 Q1005=

TAF SCCC NIL=

Estación: SCHR
METAR SCHR 292000Z 27005KT 9999 BKN005 06/03 Q1001=

TAF SCHR 291046Z 2912/3000 30005KT 9000 FEW010 BKN036 TX05/2918Z TNM02/2912Z TEMPO 2912/2915 VRB03KT 0500 FG FZFG SCT005 OVC020 BECMG 2915/2917 26005KT BECMG 2919/2921 03005KT=


Volver